Accueil
METAR-TAF:

METAR-TAF

Aéroports :

Ndjamena, Tchad

Aéroport international de N'Djaména

latitude: 12-08N, longitude: 015-02E, altitude: 295 m

Observation

Le bulletin a été fait il y a 39 minutes, à 09:00 UTC
Vent 12 kt de nord/nord-est
Température 24°C
Humidité 16%
Pression 1015 hPa
Visibilité: 6000 m

METAR: FTTJ 240900Z 03012KT 6000 NSC 24/M03 Q1015 NOSIG

Heure: 10:39 (09:39 UTC)

Prévision

Le bulletin a été fait il y a 4 heures et 39 minutes, à 05:00 UTC
Prévision valable du 24 à 06 UTC au 25 à 12 UTC
Vent 8 kt de nord/nord-est
Visibilité: 5000 m
poussière généralisée
Evoluant progressivement
du 24 à 12 UTC au 24 à 14 UTC
Visibilité: 6000 m
Temporairement
du 24 à 16 UTC au 24 à 20 UTC
Visibilité: 4000 m
brume sèche
Temporairement
du 25 à 04 UTC au 25 à 10 UTC
Visibilité: 3000 m
poussière généralisée

TAF: FTTJ 240500Z 2406/2512 02008KT 5000 DU NSC BECMG 2412/2414 6000 TEMPO 2416/2420 4000 HZ TEMPO 2504/2510 3000 DU

Observations et prévisions météorologiques de plus de 4000 aéroports (messages METAR et TAF).

Les stations disponibles sont représentées par des disques jaunes et rouges sur la carte.

Passer la souris dessus pour voir le nom de la station.

Cliquer dessus pour voir les observations et prévisions météorologiques.

Pour changer de carte: cliquez sur les boutons verts avec une croix noire pour zoomer, sur le bouton vert avec un tiret pour effectuer un zoom arrière, ou sur les flèches vertes pour les cartes adjacentes.


METAR-TAF: